Página principal
METAR-TAF:

METAR-TAF

Aeroportos :

Aeroporto Internacional L.F. Wade

Bermudas, Bermudas

latitude: 32-22N, longitude: 064-41W, altura: 6 m

Observação actual do tempo

O boletim foi feito há 26 minutos, às 10:55 UTC
Vento 7 kt de sudoeste
Temperatura 28°C
Humidade 74%
Pressão 1022 hPa
Visibilidade 10 km ou mais
Poucas nuvensa uma altura de 2300 ft
Poucas nuvensa uma altura de 30000 ft

METAR: TXKF 201055Z 22007KT 9999 FEW023 FEW300 28/23 Q1022

Hora: 08:21 (11:21 UTC)

Previsão

O boletim foi feito há 5 horas e 49 minutos, às 05:32 UTC
Previsão válida de 20 às 06 UTC a 21 às 06 UTC
Vento 6 kt de sudoeste
Visibilidade 10 km ou mais
Nuvens dispersasa uma altura de 2000 ft

TAF: TXKF 200532Z 2006/2106 22006KT 9999 SCT020

Observações e previsões do tempo de mais de 4000 aeroportos (mensagens METAR e TAF).

As estações disponíveis são os pontos amarelos e vermelhos sobre o mapa.

Mova o rato sobre o mapa para ver o nome da estação.

Depois clique no ponto para visualizar as observações e previsões meteorológicas.

Para alterar o mapa : clique nos botões verdes com uma cruz preta para aumentar o zoom; no botão verde com uma pitada de zoom; ou nas setas verdes para mapas adjacentes.


METAR-TAF: